createdAt,value
2022-08-04T00:01:31.648Z,97880.16
2022-08-04T00:04:06.243Z,97883.50
2022-08-04T00:07:02.673Z,97887.34
2022-08-04T00:09:44.111Z,97881.41
2022-08-04T00:12:20.164Z,97880.09
2022-08-04T00:14:53.438Z,97877.00
2022-08-04T00:17:29.428Z,97882.94
2022-08-04T00:20:04.967Z,97880.38
2022-08-04T00:22:37.929Z,97879.28
2022-08-04T00:25:09.326Z,97873.59
2022-08-04T00:27:42.184Z,97880.06
2022-08-04T00:30:13.524Z,97882.91
2022-08-04T00:32:44.607Z,97883.94
2022-08-04T00:35:17.801Z,97881.88
2022-08-04T00:37:49.158Z,97881.84
2022-08-04T00:40:34.050Z,97887.03
2022-08-04T00:43:18.301Z,97890.88
2022-08-04T00:46:28.761Z,97886.97
2022-08-04T00:49:35.968Z,97883.09
2022-08-04T00:52:32.164Z,97885.97
2022-08-04T00:55:22.462Z,97885.97
2022-08-04T00:58:19.183Z,97882.31
2022-08-04T01:01:07.207Z,97881.00
2022-08-04T01:04:01.331Z,97883.03
2022-08-04T01:06:44.315Z,97886.41
2022-08-04T01:09:43.489Z,97883.56
2022-08-04T01:12:44.421Z,97881.44
2022-08-04T01:15:29.547Z,97888.41
2022-08-04T01:18:08.191Z,97886.63
2022-08-04T01:20:57.759Z,97883.19
2022-08-04T01:24:27.514Z,97890.50
2022-08-04T01:27:06.514Z,97887.38
2022-08-04T01:29:48.753Z,97882.22
2022-08-04T01:32:28.661Z,97878.56
2022-08-04T01:35:07.790Z,97878.31
2022-08-04T01:38:00.008Z,97880.44
2022-08-04T01:40:31.704Z,97879.84
2022-08-04T01:43:06.208Z,97885.28
2022-08-04T01:45:40.877Z,97875.41
2022-08-04T01:48:12.942Z,97871.28
2022-08-04T01:50:46.043Z,97872.00
2022-08-04T01:53:24.575Z,97871.72
2022-08-04T01:55:57.208Z,97876.28
2022-08-04T01:58:31.506Z,97874.94
2022-08-04T02:01:08.528Z,97885.41
2022-08-04T02:04:18.468Z,97877.91
2022-08-04T02:06:54.969Z,97878.22
2022-08-04T02:09:35.313Z,97868.00
2022-08-04T02:12:38.065Z,97863.88
2022-08-04T02:15:27.917Z,97867.84
2022-08-04T02:18:07.226Z,97858.31
2022-08-04T02:20:41.865Z,97855.94
2022-08-04T02:23:18.574Z,97856.34
2022-08-04T02:25:59.558Z,97852.44
2022-08-04T02:28:39.137Z,97852.78
2022-08-04T02:31:25.031Z,97852.91
2022-08-04T02:34:10.812Z,97848.69
2022-08-04T02:36:44.302Z,97853.50
2022-08-04T02:39:15.656Z,97854.03
2022-08-04T02:41:49.491Z,97845.78
2022-08-04T02:44:25.796Z,97847.06
2022-08-04T02:46:58.040Z,97846.78
2022-08-04T02:49:38.535Z,97845.19
2022-08-04T02:52:14.069Z,97850.63
2022-08-04T02:54:47.566Z,97840.84
2022-08-04T02:57:21.459Z,97845.06
2022-08-04T03:00:14.101Z,97849.66
2022-08-04T03:03:03.087Z,97848.63
2022-08-04T03:06:13.621Z,97853.03
2022-08-04T03:09:29.777Z,97844.50
2022-08-04T03:12:50.445Z,97838.22
2022-08-04T03:15:57.555Z,97838.53
2022-08-04T03:18:59.351Z,97840.75
2022-08-04T03:22:22.787Z,97841.72
2022-08-04T03:25:26.745Z,97847.34
2022-08-04T03:28:47.784Z,97840.00
2022-08-04T03:31:50.423Z,97854.16
2022-08-04T03:34:46.674Z,97851.59
2022-08-04T03:38:16.912Z,97856.88
2022-08-04T03:41:15.227Z,97858.13
2022-08-04T03:44:27.454Z,97860.53
2022-08-04T03:47:35.804Z,97865.16
2022-08-04T03:51:35.500Z,97868.69
2022-08-04T03:54:46.963Z,97866.13
2022-08-04T03:58:08.813Z,97864.19
2022-08-04T04:00:54.435Z,97862.63
2022-08-04T04:04:06.137Z,97864.94
2022-08-04T04:07:06.879Z,97857.19
2022-08-04T04:10:15.810Z,97864.91
2022-08-04T04:13:27.749Z,97864.38
2022-08-04T04:16:35.591Z,97865.75
2022-08-04T04:19:48.159Z,97864.66
2022-08-04T04:22:38.573Z,97865.44
2022-08-04T04:25:33.053Z,97865.28
2022-08-04T04:28:44.692Z,97862.44
2022-08-04T04:31:51.797Z,97861.25
2022-08-04T04:34:45.879Z,97870.78
2022-08-04T04:37:30.060Z,97876.28
2022-08-04T04:40:28.355Z,97869.94
2022-08-04T04:43:51.071Z,97878.63
2022-08-04T04:46:36.001Z,97874.47
2022-08-04T04:49:19.986Z,97876.34
2022-08-04T04:51:58.682Z,97883.69
2022-08-04T04:54:44.245Z,97877.41
2022-08-04T04:57:53.421Z,97891.28
2022-08-04T05:00:16.532Z,97893.56
2022-08-04T05:03:27.924Z,97887.34
2022-08-04T05:06:17.880Z,97894.16
2022-08-04T05:09:06.483Z,97891.19
2022-08-04T05:14:26.352Z,97898.00
2022-08-04T05:15:34.535Z,97895.75
2022-08-04T05:18:10.059Z,97902.16
2022-08-04T05:20:46.725Z,97909.81
2022-08-04T05:23:22.383Z,97901.19
2022-08-04T05:26:00.757Z,97894.72
2022-08-04T05:28:41.598Z,97896.50
2022-08-04T05:31:22.969Z,97902.38
2022-08-04T05:33:57.730Z,97899.38
2022-08-04T05:36:41.488Z,97900.16
2022-08-04T05:39:20.122Z,97894.41
2022-08-04T05:41:55.156Z,97893.97
2022-08-04T05:44:30.878Z,97896.13
2022-08-04T05:47:02.685Z,97898.22
2022-08-04T05:49:33.290Z,97891.47
2022-08-04T05:52:06.513Z,97904.88
2022-08-04T05:54:39.223Z,97903.03
2022-08-04T05:57:12.448Z,97899.50
2022-08-04T05:59:48.382Z,97906.88
2022-08-04T06:02:22.106Z,97908.50
2022-08-04T06:04:55.231Z,97911.63
2022-08-04T06:07:26.627Z,97899.16
2022-08-04T06:09:57.401Z,97900.69
2022-08-04T06:12:35.311Z,97899.78
2022-08-04T06:15:13.479Z,97907.47
2022-08-04T06:18:33.594Z,97904.09
2022-08-04T06:20:49.981Z,97900.34
2022-08-04T06:23:23.503Z,97891.03
2022-08-04T06:25:58.044Z,97893.81
2022-08-04T06:28:30.775Z,97896.75
2022-08-04T06:32:28.899Z,97900.44
2022-08-04T06:33:59.948Z,97894.94
2022-08-04T06:36:31.467Z,97901.88
2022-08-04T06:39:03.848Z,97902.19
2022-08-04T06:41:35.410Z,97900.41
2022-08-04T06:44:28.526Z,97903.16
2022-08-04T06:47:02.818Z,97899.63
2022-08-04T06:49:44.120Z,97896.31
2022-08-04T06:52:27.162Z,97902.97
2022-08-04T06:54:58.069Z,97907.31
2022-08-04T06:57:31.629Z,97909.41
2022-08-04T07:00:08.197Z,97903.00
2022-08-04T07:02:46.895Z,97904.28
2022-08-04T07:05:17.798Z,97903.44
2022-08-04T07:07:58.046Z,97905.22
2022-08-04T07:10:30.585Z,97897.63
2022-08-04T07:13:03.214Z,97899.25
2022-08-04T07:15:35.820Z,97896.47
2022-08-04T07:18:08.660Z,97901.63
2022-08-04T07:20:42.616Z,97900.59
2022-08-04T07:23:17.706Z,97900.53
2022-08-04T07:26:11.323Z,97899.34
2022-08-04T07:28:44.607Z,97902.56
2022-08-04T07:31:34.492Z,97901.50
2022-08-04T07:34:21.469Z,97900.28
2022-08-04T07:36:55.860Z,97892.56
2022-08-04T07:39:30.071Z,97898.31
2022-08-04T07:42:03.218Z,97897.91
2022-08-04T07:44:34.949Z,97892.44
2022-08-04T07:47:08.959Z,97892.94
2022-08-04T07:49:55.933Z,97891.88
2022-08-04T07:52:28.523Z,97890.41
2022-08-04T07:54:59.391Z,97890.25
2022-08-04T07:57:40.733Z,97890.22
2022-08-04T08:00:15.386Z,97890.09
2022-08-04T08:02:48.445Z,97884.09
2022-08-04T08:05:23.055Z,97890.16
2022-08-04T08:07:55.882Z,97885.50
2022-08-04T08:10:27.501Z,97883.69
2022-08-04T08:12:58.897Z,97873.78
2022-08-04T08:15:29.470Z,97871.28
2022-08-04T08:18:00.926Z,97871.53
2022-08-04T08:20:35.712Z,97867.41
2022-08-04T08:23:06.214Z,97862.75
2022-08-04T08:25:36.922Z,97867.00
2022-08-04T08:28:09.131Z,97868.53
2022-08-04T08:30:39.732Z,97865.19
2022-08-04T08:33:18.364Z,97860.88
2022-08-04T08:36:01.540Z,97866.38
2022-08-04T08:38:48.074Z,97863.84
2022-08-04T08:41:54.901Z,97857.13
2022-08-04T08:45:12.314Z,97861.47
2022-08-04T08:48:14.161Z,97870.66
2022-08-04T08:51:25.002Z,97876.75
2022-08-04T08:54:38.542Z,97858.16
2022-08-04T08:57:29.733Z,97870.63
2022-08-04T09:00:12.545Z,97870.00
2022-08-04T09:03:20.214Z,97869.31
2022-08-04T09:06:26.913Z,97865.91
2022-08-04T09:09:51.904Z,97868.00
2022-08-04T09:12:48.822Z,97866.16
2022-08-04T09:15:30.256Z,97862.91
2022-08-04T09:18:08.651Z,97861.34
2022-08-04T09:20:47.087Z,97866.88
2022-08-04T09:23:26.144Z,97864.91
2022-08-04T09:26:07.913Z,97863.13
2022-08-04T09:28:54.122Z,97864.78
2022-08-04T09:31:51.771Z,97872.06
2022-08-04T09:34:36.158Z,97856.22
2022-08-04T09:37:17.985Z,97857.53
2022-08-04T09:40:05.795Z,97860.81
2022-08-04T09:42:55.113Z,97860.00
2022-08-04T09:45:43.207Z,97846.34
2022-08-04T09:48:27.887Z,97842.00
2022-08-04T09:51:02.417Z,97841.69
2022-08-04T09:53:52.660Z,97851.03
2022-08-04T09:56:33.398Z,97850.03
2022-08-04T09:59:21.645Z,97836.13
2022-08-04T10:01:59.749Z,97836.19
2022-08-04T10:04:34.587Z,97833.59
2022-08-04T10:07:38.148Z,97829.50
2022-08-04T10:10:24.327Z,97819.88
2022-08-04T10:13:29.509Z,97823.47
2022-08-04T10:16:33.901Z,97819.66
2022-08-04T10:19:23.444Z,97816.25
2022-08-04T10:22:28.332Z,97818.19
2022-08-04T10:25:37.559Z,97822.44
2022-08-04T10:28:11.957Z,97799.44
2022-08-04T10:30:52.045Z,97807.41
2022-08-04T10:33:31.102Z,97806.91
2022-08-04T10:36:07.780Z,97800.94
2022-08-04T10:38:48.909Z,97801.47
2022-08-04T10:41:35.555Z,97810.81
2022-08-04T10:44:26.464Z,97799.25
2022-08-04T10:47:03.555Z,97799.44
2022-08-04T10:49:40.669Z,97799.16
2022-08-04T10:52:21.052Z,97791.97
2022-08-04T10:55:03.798Z,97795.78
2022-08-04T10:57:50.102Z,97788.34
2022-08-04T11:00:27.469Z,97785.44
2022-08-04T11:03:09.138Z,97797.28
2022-08-04T11:05:51.530Z,97797.56
2022-08-04T11:08:31.317Z,97790.13
2022-08-04T11:11:10.405Z,97791.84
2022-08-04T11:13:48.099Z,97789.91
2022-08-04T11:16:26.611Z,97783.72
2022-08-04T11:19:10.889Z,97787.50
2022-08-04T11:21:55.786Z,97782.53
2022-08-04T11:24:38.037Z,97778.66
2022-08-04T11:27:18.228Z,97785.66
2022-08-04T11:30:03.930Z,97777.06
2022-08-04T11:32:46.882Z,97784.66
2022-08-04T11:35:37.474Z,97782.84
2022-08-04T11:38:21.038Z,97787.84
2022-08-04T11:41:03.622Z,97788.44
2022-08-04T11:44:00.607Z,97773.78
2022-08-04T11:46:39.510Z,97774.06
2022-08-04T11:49:18.094Z,97775.69
2022-08-04T11:51:50.739Z,97775.00
2022-08-04T11:54:24.706Z,97766.34
2022-08-04T11:56:56.302Z,97769.41
2022-08-04T11:59:30.169Z,97771.97
2022-08-04T12:02:45.006Z,97762.00
2022-08-04T12:05:35.759Z,97755.00
2022-08-04T12:08:24.919Z,97760.13
2022-08-04T12:11:12.287Z,97757.78
2022-08-04T12:13:51.682Z,97749.94
2022-08-04T12:16:30.876Z,97748.38
2022-08-04T12:19:06.790Z,97750.59
2022-08-04T12:21:53.238Z,97748.66
2022-08-04T12:24:35.854Z,97750.69
2022-08-04T12:27:18.519Z,97745.25
2022-08-04T12:30:57.107Z,97751.47
2022-08-04T12:32:48.238Z,97748.09
2022-08-04T12:35:26.113Z,97750.50
2022-08-04T12:38:05.523Z,97743.50
2022-08-04T12:40:44.805Z,97736.88
2022-08-04T12:43:26.014Z,97738.16
2022-08-04T12:46:01.006Z,97735.97
2022-08-04T12:48:33.435Z,97736.06
2022-08-04T12:51:05.585Z,97730.09
2022-08-04T12:53:50.936Z,97729.91
2022-08-04T12:56:30.038Z,97729.41
2022-08-04T12:59:12.586Z,97726.47
2022-08-04T13:02:06.975Z,97727.50
2022-08-04T13:04:51.286Z,97725.13
2022-08-04T13:07:25.284Z,97728.72
2022-08-04T13:09:56.098Z,97722.84
2022-08-04T13:12:32.276Z,97730.84
2022-08-04T13:15:20.609Z,97720.34
2022-08-04T13:17:59.324Z,97718.53
2022-08-04T13:20:33.210Z,97713.75
2022-08-04T13:23:09.774Z,97712.84
2022-08-04T13:26:44.986Z,97704.44
2022-08-04T13:28:42.892Z,97712.25
2022-08-04T13:31:20.625Z,97698.69
2022-08-04T13:33:56.147Z,97701.56
2022-08-04T13:36:29.470Z,97697.88
2022-08-04T13:39:07.443Z,97687.88
2022-08-04T13:41:42.662Z,97682.88
2022-08-04T13:44:19.384Z,97689.28
2022-08-04T13:46:58.507Z,97693.25
2022-08-04T13:49:42.422Z,97684.09
2022-08-04T13:52:19.459Z,97687.47
2022-08-04T13:54:53.568Z,97681.19
2022-08-04T13:57:33.987Z,97679.25
2022-08-04T14:00:10.083Z,97685.66
2022-08-04T14:02:51.639Z,97678.16
2022-08-04T14:05:29.521Z,97667.19
2022-08-04T14:08:11.862Z,97670.91
2022-08-04T14:10:43.883Z,97663.88
2022-08-04T14:13:14.129Z,97658.00
2022-08-04T14:16:01.790Z,97663.09
2022-08-04T14:18:36.014Z,97659.28
2022-08-04T14:21:11.505Z,97659.56
2022-08-04T14:23:47.675Z,97654.78
2022-08-04T14:26:33.168Z,97647.16
2022-08-04T14:29:26.597Z,97653.34
2022-08-04T14:32:10.634Z,97657.63
2022-08-04T14:34:48.057Z,97653.53
2022-08-04T14:37:22.607Z,97648.56
2022-08-04T14:40:19.144Z,97646.47
2022-08-04T14:42:54.995Z,97647.38
2022-08-04T14:45:34.882Z,97646.97
2022-08-04T14:48:09.935Z,97648.97
2022-08-04T14:50:46.391Z,97643.34
2022-08-04T14:53:19.818Z,97642.88
2022-08-04T14:55:53.154Z,97639.50
2022-08-04T14:58:34.041Z,97638.38
2022-08-04T15:01:12.408Z,97640.03
2022-08-04T15:03:50.078Z,97643.94
2022-08-04T15:06:28.752Z,97644.75
2022-08-04T15:09:02.269Z,97639.84
2022-08-04T15:11:32.791Z,97639.03
2022-08-04T15:14:09.405Z,97639.03
2022-08-04T15:16:59.796Z,97639.03
2022-08-04T15:19:30.081Z,97638.56
2022-08-04T15:22:07.424Z,97641.84
2022-08-04T15:24:52.204Z,97636.25
2022-08-04T15:27:30.050Z,97639.44
2022-08-04T15:30:04.789Z,97632.03
2022-08-04T15:32:40.080Z,97628.66
2022-08-04T15:35:14.774Z,97635.72
2022-08-04T15:38:01.869Z,97632.53
2022-08-04T15:40:42.988Z,97627.72
2022-08-04T15:43:55.326Z,97628.66
2022-08-04T15:47:14.582Z,97622.97
2022-08-04T15:49:46.051Z,97626.38
2022-08-04T15:52:18.614Z,97621.09
2022-08-04T15:54:52.842Z,97624.94
2022-08-04T15:58:07.013Z,97625.44
2022-08-04T16:01:18.261Z,97615.81
2022-08-04T16:03:54.492Z,97628.28
2022-08-04T16:06:48.938Z,97618.53
2022-08-04T16:09:45.605Z,97613.06
2022-08-04T16:13:00.380Z,97610.22
2022-08-04T16:15:42.709Z,97608.75
2022-08-04T16:18:36.537Z,97611.41
2022-08-04T16:21:09.710Z,97611.72
2022-08-04T16:24:05.618Z,97605.81
2022-08-04T16:26:57.956Z,97607.81
2022-08-04T16:29:43.266Z,97605.34
2022-08-04T16:32:21.809Z,97609.13
2022-08-04T16:35:00.043Z,97602.00
2022-08-04T16:37:41.932Z,97591.44
2022-08-04T16:40:35.880Z,97593.03
2022-08-04T16:43:13.948Z,97596.22
2022-08-04T16:45:58.952Z,97592.94
2022-08-04T16:48:31.531Z,97592.28
2022-08-04T16:51:06.698Z,97586.50
2022-08-04T16:53:53.804Z,97585.88
2022-08-04T16:56:36.050Z,97579.97
2022-08-04T16:59:11.880Z,97580.91
2022-08-04T17:01:51.010Z,97586.28
2022-08-04T17:04:31.820Z,97581.69
2022-08-04T17:07:06.527Z,97584.22
2022-08-04T17:09:36.649Z,97573.28
2022-08-04T17:12:07.795Z,97572.25
2022-08-04T17:14:37.924Z,97573.88
2022-08-04T17:17:10.879Z,97569.03
2022-08-04T17:19:41.722Z,97568.84
2022-08-04T17:22:11.986Z,97569.69
2022-08-04T17:24:43.368Z,97573.19
2022-08-04T17:28:19.792Z,97572.97
2022-08-04T17:30:04.457Z,97565.28
2022-08-04T17:32:40.251Z,97560.56
2022-08-04T17:35:11.606Z,97561.69
2022-08-04T17:37:52.830Z,97561.34
2022-08-04T17:40:35.318Z,97564.72
2022-08-04T17:44:01.103Z,97566.66
2022-08-04T17:46:30.151Z,97564.63
2022-08-04T17:49:22.146Z,97565.72
2022-08-04T17:52:07.125Z,97564.22
2022-08-04T17:54:43.280Z,97569.19
2022-08-04T17:57:21.279Z,97562.97
2022-08-04T17:59:59.087Z,97575.38
2022-08-04T18:02:34.782Z,97572.78
2022-08-04T18:08:39.363Z,97569.59
2022-08-04T18:10:58.785Z,97569.16
2022-08-04T18:13:31.362Z,97560.16
2022-08-04T18:16:22.343Z,97573.34
2022-08-04T18:19:11.435Z,97570.47
2022-08-04T18:21:59.720Z,97562.88
2022-08-04T18:24:34.695Z,97562.41
2022-08-04T18:27:26.198Z,97571.25
2022-08-04T18:30:34.088Z,97569.53
2022-08-04T18:33:16.580Z,97563.13
2022-08-04T18:36:35.340Z,97566.84
2022-08-04T18:38:37.292Z,97565.38
2022-08-04T18:41:26.451Z,97572.06
2022-08-04T18:43:56.951Z,97570.47
2022-08-04T18:46:27.599Z,97574.81
2022-08-04T18:49:00.188Z,97587.41
2022-08-04T18:51:30.902Z,97585.06
2022-08-04T18:54:03.934Z,97582.97
2022-08-04T18:56:37.308Z,97576.84
2022-08-04T18:59:10.369Z,97587.13
2022-08-04T19:02:17.243Z,97592.38
2022-08-04T19:04:33.184Z,97579.47
2022-08-04T19:07:23.387Z,97588.56
2022-08-04T19:09:59.386Z,97589.72
2022-08-04T19:12:30.568Z,97593.72
2022-08-04T19:15:10.288Z,97602.22
2022-08-04T19:17:57.264Z,97603.78
2022-08-04T19:20:32.219Z,97615.03
2022-08-04T19:24:23.446Z,97612.22
2022-08-04T19:26:02.783Z,97608.97
2022-08-04T19:28:37.554Z,97613.03
2022-08-04T19:31:10.758Z,97623.91
2022-08-04T19:33:55.910Z,97627.97
2022-08-04T19:36:35.094Z,97628.16
2022-08-04T19:39:11.881Z,97633.13
2022-08-04T19:42:05.754Z,97635.00
2022-08-04T19:44:36.082Z,97636.84
2022-08-04T19:48:15.884Z,97638.09
2022-08-04T19:50:10.444Z,97639.97
2022-08-04T19:52:51.744Z,97645.50
2022-08-04T19:55:36.660Z,97646.47
2022-08-04T19:58:12.446Z,97649.53
2022-08-04T20:00:44.811Z,97648.91
2022-08-04T20:03:22.058Z,97643.34
2022-08-04T20:05:55.764Z,97655.66
2022-08-04T20:08:29.696Z,97654.28
2022-08-04T20:11:00.432Z,97647.94
2022-08-04T20:13:37.670Z,97655.19
2022-08-04T20:16:28.308Z,97661.63
2022-08-04T20:21:55.972Z,97656.78
2022-08-04T20:24:40.482Z,97661.34
2022-08-04T20:27:21.960Z,97665.31
2022-08-04T20:29:56.306Z,97663.50
2022-08-04T20:32:29.730Z,97664.44
2022-08-04T20:35:01.164Z,97663.41
2022-08-04T20:38:00.560Z,97669.03
2022-08-04T20:40:22.265Z,97668.56
2022-08-04T20:42:53.293Z,97671.66
2022-08-04T20:45:57.214Z,97678.66
2022-08-04T20:48:16.721Z,97673.31
2022-08-04T20:50:48.775Z,97667.31
2022-08-04T20:53:19.232Z,97666.56
2022-08-04T20:56:02.850Z,97676.63
2022-08-04T20:58:32.943Z,97668.16
2022-08-04T21:01:05.960Z,97671.69
2022-08-04T21:03:59.934Z,97664.72
2022-08-04T21:06:31.271Z,97665.16
2022-08-04T21:09:01.632Z,97668.31
2022-08-04T21:11:47.299Z,97664.50
2022-08-04T21:14:20.995Z,97665.19
2022-08-04T21:17:03.988Z,97665.31
2022-08-04T21:19:38.513Z,97657.59
2022-08-04T21:22:11.934Z,97660.59
2022-08-04T21:24:42.147Z,97663.38
2022-08-04T21:27:18.771Z,97668.19
2022-08-04T21:29:49.748Z,97667.34
2022-08-04T21:32:22.548Z,97668.88
2022-08-04T21:34:59.835Z,97672.66
2022-08-04T21:37:57.861Z,97659.25
2022-08-04T21:40:32.784Z,97665.03
2022-08-04T21:43:08.219Z,97667.94
2022-08-04T21:45:38.589Z,97659.97
2022-08-04T21:48:12.149Z,97671.53
2022-08-04T21:50:42.374Z,97667.66
2022-08-04T21:53:14.554Z,97662.38
2022-08-04T21:56:05.549Z,97664.31
2022-08-04T21:58:37.489Z,97667.22
2022-08-04T22:01:13.108Z,97664.91
2022-08-04T22:03:52.593Z,97659.59
2022-08-04T22:06:28.222Z,97656.63
2022-08-04T22:09:00.142Z,97660.34
2022-08-04T22:11:49.173Z,97657.94
2022-08-04T22:14:29.466Z,97657.53
2022-08-04T22:17:18.258Z,97662.16
2022-08-04T22:19:55.483Z,97668.13
2022-08-04T22:22:29.177Z,97669.88
2022-08-04T22:27:57.571Z,97674.47
2022-08-04T22:30:36.532Z,97669.56
2022-08-04T22:33:10.527Z,97666.47
2022-08-04T22:35:49.708Z,97661.91
2022-08-04T22:38:29.103Z,97658.91
2022-08-04T22:41:13.973Z,97659.13
2022-08-04T22:43:45.370Z,97655.56
2022-08-04T22:46:27.817Z,97649.44
2022-08-04T22:48:57.898Z,97656.22
2022-08-04T22:51:30.702Z,97649.25
2022-08-04T22:54:01.714Z,97654.44
2022-08-04T22:56:37.833Z,97658.25
2022-08-04T22:59:11.524Z,97655.03
2022-08-04T23:01:59.651Z,97657.25
2022-08-04T23:04:32.578Z,97661.19
2022-08-04T23:07:09.636Z,97664.09
2022-08-04T23:09:50.942Z,97658.81
2022-08-04T23:12:25.345Z,97655.84
2022-08-04T23:14:57.522Z,97651.22
2022-08-04T23:17:29.405Z,97653.00
2022-08-04T23:20:01.289Z,97644.81
2022-08-04T23:22:42.100Z,97643.84
2022-08-04T23:25:16.991Z,97647.59
2022-08-04T23:27:51.038Z,97647.88
2022-08-04T23:30:24.831Z,97648.34
2022-08-04T23:33:00.259Z,97647.88
2022-08-04T23:35:30.529Z,97645.75
2022-08-04T23:38:30.463Z,97654.13
2022-08-04T23:40:55.465Z,97649.50
2022-08-04T23:46:09.243Z,97650.72
2022-08-04T23:48:40.407Z,97650.59
2022-08-04T23:51:15.542Z,97648.69
2022-08-04T23:54:01.870Z,97649.06
2022-08-04T23:56:35.655Z,97655.34
2022-08-04T23:59:17.959Z,97646.31
